sensor_id;sensor_type;location;lat;lon;timestamp;pressure;altitude;pressure_sealevel;temperature;humidity
20455;BME280;10386;54.314;10.022;2022-12-18T00:02:15;102607.97;;;-4.60;100.00
20455;BME280;10386;54.314;10.022;2022-12-18T00:04:42;102615.34;;;-4.42;100.00
20455;BME280;10386;54.314;10.022;2022-12-18T00:07:09;102619.97;;;-4.29;100.00
20455;BME280;10386;54.314;10.022;2022-12-18T00:09:36;102608.94;;;-4.05;100.00
20455;BME280;10386;54.314;10.022;2022-12-18T00:12:06;102593.25;;;-3.88;100.00
20455;BME280;10386;54.314;10.022;2022-12-18T00:14:42;102589.06;;;-3.73;100.00
20455;BME280;10386;54.314;10.022;2022-12-18T00:17:08;102589.91;;;-3.78;100.00
20455;BME280;10386;54.314;10.022;2022-12-18T00:19:35;102582.69;;;-3.85;100.00
20455;BME280;10386;54.314;10.022;2022-12-18T00:22:02;102585.34;;;-3.87;100.00
20455;BME280;10386;54.314;10.022;2022-12-18T00:24:29;102584.38;;;-3.90;100.00
20455;BME280;10386;54.314;10.022;2022-12-18T00:26:55;102590.41;;;-4.02;100.00
20455;BME280;10386;54.314;10.022;2022-12-18T00:29:22;102579.03;;;-3.95;100.00
20455;BME280;10386;54.314;10.022;2022-12-18T00:31:49;102571.31;;;-3.78;100.00
20455;BME280;10386;54.314;10.022;2022-12-18T00:34:16;102574.59;;;-3.96;100.00
20455;BME280;10386;54.314;10.022;2022-12-18T00:36:42;102570.06;;;-4.01;100.00
20455;BME280;10386;54.314;10.022;2022-12-18T00:39:11;102564.97;;;-3.88;100.00
20455;BME280;10386;54.314;10.022;2022-12-18T00:41:38;102575.34;;;-4.04;100.00
20455;BME280;10386;54.314;10.022;2022-12-18T00:44:24;102585.78;;;-4.14;100.00
20455;BME280;10386;54.314;10.022;2022-12-18T00:46:51;102593.78;;;-4.11;100.00
20455;BME280;10386;54.314;10.022;2022-12-18T00:49:19;102587.34;;;-4.25;100.00
20455;BME280;10386;54.314;10.022;2022-12-18T00:51:46;102590.22;;;-4.12;100.00
20455;BME280;10386;54.314;10.022;2022-12-18T00:54:13;102586.56;;;-4.21;100.00
20455;BME280;10386;54.314;10.022;2022-12-18T00:56:40;102582.84;;;-4.31;100.00
20455;BME280;10386;54.314;10.022;2022-12-18T00:59:16;102589.03;;;-4.30;100.00
20455;BME280;10386;54.314;10.022;2022-12-18T01:01:44;102594.19;;;-4.41;100.00
20455;BME280;10386;54.314;10.022;2022-12-18T01:04:11;102595.19;;;-4.31;100.00
20455;BME280;10386;54.314;10.022;2022-12-18T01:06:38;102598.25;;;-4.59;100.00
20455;BME280;10386;54.314;10.022;2022-12-18T01:09:06;102607.63;;;-4.29;100.00
20455;BME280;10386;54.314;10.022;2022-12-18T01:11:32;102601.97;;;-4.50;100.00
20455;BME280;10386;54.314;10.022;2022-12-18T01:13:59;102598.56;;;-4.41;100.00
20455;BME280;10386;54.314;10.022;2022-12-18T01:16:26;102603.09;;;-4.36;100.00
20455;BME280;10386;54.314;10.022;2022-12-18T01:18:54;102599.59;;;-4.33;100.00
20455;BME280;10386;54.314;10.022;2022-12-18T01:21:22;102596.78;;;-4.44;100.00
20455;BME280;10386;54.314;10.022;2022-12-18T01:23:54;102603.91;;;-4.38;100.00
20455;BME280;10386;54.314;10.022;2022-12-18T01:26:22;102604.72;;;-4.44;100.00
20455;BME280;10386;54.314;10.022;2022-12-18T01:28:50;102615.22;;;-4.50;100.00
20455;BME280;10386;54.314;10.022;2022-12-18T01:31:19;102608.06;;;-4.54;100.00
20455;BME280;10386;54.314;10.022;2022-12-18T01:33:46;102603.03;;;-4.39;100.00
20455;BME280;10386;54.314;10.022;2022-12-18T01:36:18;102607.69;;;-4.26;100.00
20455;BME280;10386;54.314;10.022;2022-12-18T01:38:45;102620.13;;;-4.22;100.00
20455;BME280;10386;54.314;10.022;2022-12-18T01:41:12;102625.00;;;-4.44;100.00
20455;BME280;10386;54.314;10.022;2022-12-18T01:43:44;102636.41;;;-4.48;100.00
20455;BME280;10386;54.314;10.022;2022-12-18T01:46:11;102632.94;;;-4.46;100.00
20455;BME280;10386;54.314;10.022;2022-12-18T01:48:39;102635.94;;;-4.26;100.00
20455;BME280;10386;54.314;10.022;2022-12-18T01:51:08;102641.78;;;-4.47;100.00
20455;BME280;10386;54.314;10.022;2022-12-18T01:53:37;102628.47;;;-4.48;100.00
20455;BME280;10386;54.314;10.022;2022-12-18T01:56:06;102618.06;;;-4.38;100.00
20455;BME280;10386;54.314;10.022;2022-12-18T01:58:45;102632.19;;;-4.37;100.00
20455;BME280;10386;54.314;10.022;2022-12-18T02:01:13;102628.69;;;-4.38;100.00
20455;BME280;10386;54.314;10.022;2022-12-18T02:03:43;102641.94;;;-4.36;100.00
20455;BME280;10386;54.314;10.022;2022-12-18T02:06:17;102634.78;;;-4.40;100.00
20455;BME280;10386;54.314;10.022;2022-12-18T02:09:17;102642.63;;;-4.48;100.00
20455;BME280;10386;54.314;10.022;2022-12-18T02:11:53;102648.75;;;-4.50;100.00
20455;BME280;10386;54.314;10.022;2022-12-18T02:17:30;102636.31;;;-4.56;100.00
20455;BME280;10386;54.314;10.022;2022-12-18T02:20:18;102634.75;;;-4.43;100.00
20455;BME280;10386;54.314;10.022;2022-12-18T02:23:01;102645.19;;;-4.52;100.00
20455;BME280;10386;54.314;10.022;2022-12-18T02:28:33;102639.88;;;-4.54;100.00
20455;BME280;10386;54.314;10.022;2022-12-18T02:31:05;102646.25;;;-4.41;100.00
20455;BME280;10386;54.314;10.022;2022-12-18T02:33:35;102647.13;;;-4.42;100.00
20455;BME280;10386;54.314;10.022;2022-12-18T02:36:03;102647.97;;;-4.45;100.00
20455;BME280;10386;54.314;10.022;2022-12-18T02:38:33;102660.66;;;-4.27;100.00
20455;BME280;10386;54.314;10.022;2022-12-18T02:41:02;102658.75;;;-4.34;100.00
20455;BME280;10386;54.314;10.022;2022-12-18T02:43:30;102655.03;;;-4.45;100.00
20455;BME280;10386;54.314;10.022;2022-12-18T02:45:58;102657.88;;;-4.35;100.00
20455;BME280;10386;54.314;10.022;2022-12-18T02:48:31;102648.06;;;-4.40;100.00
20455;BME280;10386;54.314;10.022;2022-12-18T02:51:08;102649.84;;;-4.39;100.00
20455;BME280;10386;54.314;10.022;2022-12-18T02:53:53;102650.75;;;-4.37;100.00
20455;BME280;10386;54.314;10.022;2022-12-18T02:56:29;102657.91;;;-4.33;100.00
20455;BME280;10386;54.314;10.022;2022-12-18T02:59:10;102652.59;;;-4.33;100.00
20455;BME280;10386;54.314;10.022;2022-12-18T03:02:04;102662.09;;;-4.44;100.00
20455;BME280;10386;54.314;10.022;2022-12-18T03:04:39;102655.81;;;-4.51;100.00
20455;BME280;10386;54.314;10.022;2022-12-18T03:07:15;102649.94;;;-4.35;100.00
20455;BME280;10386;54.314;10.022;2022-12-18T03:09:48;102641.06;;;-4.35;100.00
20455;BME280;10386;54.314;10.022;2022-12-18T03:12:21;102650.63;;;-4.45;100.00
20455;BME280;10386;54.314;10.022;2022-12-18T03:15:17;102648.16;;;-4.34;100.00
20455;BME280;10386;54.314;10.022;2022-12-18T03:17:52;102657.13;;;-4.28;100.00
20455;BME280;10386;54.314;10.022;2022-12-18T03:20:24;102661.50;;;-4.28;100.00
20455;BME280;10386;54.314;10.022;2022-12-18T03:22:57;102670.28;;;-4.32;100.00
20455;BME280;10386;54.314;10.022;2022-12-18T03:25:28;102680.94;;;-4.29;100.00
20455;BME280;10386;54.314;10.022;2022-12-18T03:27:58;102680.03;;;-4.31;100.00
20455;BME280;10386;54.314;10.022;2022-12-18T03:30:29;102672.75;;;-4.41;100.00
20455;BME280;10386;54.314;10.022;2022-12-18T03:33:08;102674.38;;;-4.49;100.00
20455;BME280;10386;54.314;10.022;2022-12-18T03:35:42;102672.72;;;-4.44;100.00
20455;BME280;10386;54.314;10.022;2022-12-18T03:38:09;102671.78;;;-4.46;100.00
20455;BME280;10386;54.314;10.022;2022-12-18T03:40:53;102678.88;;;-4.45;100.00
20455;BME280;10386;54.314;10.022;2022-12-18T03:43:33;102687.63;;;-4.51;100.00
20455;BME280;10386;54.314;10.022;2022-12-18T03:46:40;102685.09;;;-4.43;100.00
20455;BME280;10386;54.314;10.022;2022-12-18T03:49:09;102684.97;;;-4.49;100.00
20455;BME280;10386;54.314;10.022;2022-12-18T03:51:43;102680.72;;;-4.43;100.00
20455;BME280;10386;54.314;10.022;2022-12-18T03:54:13;102674.50;;;-4.43;100.00
20455;BME280;10386;54.314;10.022;2022-12-18T03:56:47;102657.50;;;-4.54;100.00
20455;BME280;10386;54.314;10.022;2022-12-18T03:59:16;102660.31;;;-4.47;100.00
20455;BME280;10386;54.314;10.022;2022-12-18T04:01:47;102656.69;;;-4.50;100.00
20455;BME280;10386;54.314;10.022;2022-12-18T04:04:17;102647.06;;;-4.45;100.00
20455;BME280;10386;54.314;10.022;2022-12-18T04:06:47;102650.59;;;-4.46;100.00
20455;BME280;10386;54.314;10.022;2022-12-18T04:09:14;102654.06;;;-4.50;100.00
20455;BME280;10386;54.314;10.022;2022-12-18T04:11:42;102660.84;;;-4.66;100.00
20455;BME280;10386;54.314;10.022;2022-12-18T04:14:11;102667.06;;;-4.62;100.00
20455;BME280;10386;54.314;10.022;2022-12-18T04:16:43;102670.47;;;-4.69;100.00
20455;BME280;10386;54.314;10.022;2022-12-18T04:19:11;102671.22;;;-4.76;100.00
20455;BME280;10386;54.314;10.022;2022-12-18T04:21:38;102682.03;;;-4.66;100.00
20455;BME280;10386;54.314;10.022;2022-12-18T04:24:05;102691.66;;;-4.69;100.00
20455;BME280;10386;54.314;10.022;2022-12-18T04:26:32;102692.47;;;-4.73;100.00
20455;BME280;10386;54.314;10.022;2022-12-18T04:28:59;102713.53;;;-4.79;100.00
20455;BME280;10386;54.314;10.022;2022-12-18T04:31:26;102710.16;;;-4.72;100.00
20455;BME280;10386;54.314;10.022;2022-12-18T04:33:53;102710.91;;;-4.78;100.00
20455;BME280;10386;54.314;10.022;2022-12-18T04:36:20;102705.72;;;-4.73;100.00
20455;BME280;10386;54.314;10.022;2022-12-18T04:38:47;102714.69;;;-4.65;100.00
20455;BME280;10386;54.314;10.022;2022-12-18T04:41:14;102727.75;;;-4.74;100.00
20455;BME280;10386;54.314;10.022;2022-12-18T04:43:41;102725.13;;;-4.74;100.00
20455;BME280;10386;54.314;10.022;2022-12-18T04:46:08;102719.81;;;-4.74;100.00
20455;BME280;10386;54.314;10.022;2022-12-18T04:48:36;102724.00;;;-4.85;100.00
20455;BME280;10386;54.314;10.022;2022-12-18T04:51:04;102723.06;;;-4.87;100.00
20455;BME280;10386;54.314;10.022;2022-12-18T04:53:31;102726.91;;;-4.73;100.00
20455;BME280;10386;54.314;10.022;2022-12-18T04:56:09;102732.06;;;-4.79;100.00
20455;BME280;10386;54.314;10.022;2022-12-18T04:58:38;102723.25;;;-4.78;100.00
20455;BME280;10386;54.314;10.022;2022-12-18T05:01:06;102719.94;;;-4.68;100.00
20455;BME280;10386;54.314;10.022;2022-12-18T05:03:34;102717.25;;;-4.70;100.00
20455;BME280;10386;54.314;10.022;2022-12-18T05:06:03;102717.34;;;-4.65;100.00
20455;BME280;10386;54.314;10.022;2022-12-18T05:08:30;102726.06;;;-4.71;100.00
20455;BME280;10386;54.314;10.022;2022-12-18T05:11:04;102745.06;;;-4.90;100.00
20455;BME280;10386;54.314;10.022;2022-12-18T05:13:32;102752.22;;;-4.86;100.00
20455;BME280;10386;54.314;10.022;2022-12-18T05:15:59;102752.16;;;-4.90;100.00
20455;BME280;10386;54.314;10.022;2022-12-18T05:18:27;102752.03;;;-4.95;100.00
20455;BME280;10386;54.314;10.022;2022-12-18T05:20:54;102768.63;;;-5.03;100.00
20455;BME280;10386;54.314;10.022;2022-12-18T05:23:22;102768.81;;;-4.94;100.00
20455;BME280;10386;54.314;10.022;2022-12-18T05:25:58;102762.53;;;-4.99;100.00
20455;BME280;10386;54.314;10.022;2022-12-18T05:28:27;102761.53;;;-5.04;100.00
20455;BME280;10386;54.314;10.022;2022-12-18T05:30:59;102764.88;;;-5.13;100.00
20455;BME280;10386;54.314;10.022;2022-12-18T05:33:29;102771.28;;;-5.02;100.00
20455;BME280;10386;54.314;10.022;2022-12-18T05:35:59;102761.47;;;-5.07;100.00
20455;BME280;10386;54.314;10.022;2022-12-18T05:38:27;102768.50;;;-5.09;100.00
20455;BME280;10386;54.314;10.022;2022-12-18T05:40:55;102772.13;;;-5.04;100.00
20455;BME280;10386;54.314;10.022;2022-12-18T05:43:22;102780.06;;;-5.04;100.00
20455;BME280;10386;54.314;10.022;2022-12-18T05:45:50;102776.59;;;-5.02;100.00
20455;BME280;10386;54.314;10.022;2022-12-18T05:48:17;102777.44;;;-5.03;100.00
20455;BME280;10386;54.314;10.022;2022-12-18T05:50:45;102783.41;;;-5.11;100.00
20455;BME280;10386;54.314;10.022;2022-12-18T05:53:15;102774.53;;;-5.15;100.00
20455;BME280;10386;54.314;10.022;2022-12-18T05:55:42;102784.19;;;-5.15;100.00
20455;BME280;10386;54.314;10.022;2022-12-18T05:58:11;102776.19;;;-5.18;100.00
20455;BME280;10386;54.314;10.022;2022-12-18T06:00:40;102798.16;;;-5.22;100.00
20455;BME280;10386;54.314;10.022;2022-12-18T06:03:12;102792.31;;;-5.09;100.00
20455;BME280;10386;54.314;10.022;2022-12-18T06:05:42;102797.63;;;-5.08;100.00
20455;BME280;10386;54.314;10.022;2022-12-18T06:08:12;102790.63;;;-5.06;100.00
20455;BME280;10386;54.314;10.022;2022-12-18T06:10:40;102801.72;;;-5.20;100.00
20455;BME280;10386;54.314;10.022;2022-12-18T06:13:07;102808.81;;;-5.19;100.00
20455;BME280;10386;54.314;10.022;2022-12-18T06:15:37;102811.97;;;-5.35;100.00
20455;BME280;10386;54.314;10.022;2022-12-18T06:18:04;102807.66;;;-5.32;100.00
20455;BME280;10386;54.314;10.022;2022-12-18T06:20:31;102812.03;;;-5.32;100.00
20455;BME280;10386;54.314;10.022;2022-12-18T06:22:59;102807.88;;;-5.23;100.00
20455;BME280;10386;54.314;10.022;2022-12-18T06:25:26;102810.53;;;-5.21;100.00
20455;BME280;10386;54.314;10.022;2022-12-18T06:27:53;102799.78;;;-5.29;100.00
20455;BME280;10386;54.314;10.022;2022-12-18T06:30:20;102805.44;;;-5.49;100.00
20455;BME280;10386;54.314;10.022;2022-12-18T06:32:50;102812.66;;;-5.42;100.00
20455;BME280;10386;54.314;10.022;2022-12-18T06:35:22;102811.47;;;-5.54;100.00
20455;BME280;10386;54.314;10.022;2022-12-18T06:37:49;102816.63;;;-5.25;100.00
20455;BME280;10386;54.314;10.022;2022-12-18T06:40:16;102813.53;;;-5.43;100.00
20455;BME280;10386;54.314;10.022;2022-12-18T06:42:43;102832.38;;;-5.65;100.00
20455;BME280;10386;54.314;10.022;2022-12-18T06:45:16;102832.75;;;-5.50;100.00
20455;BME280;10386;54.314;10.022;2022-12-18T06:47:45;102826.41;;;-5.56;100.00
20455;BME280;10386;54.314;10.022;2022-12-18T06:50:12;102839.59;;;-5.58;100.00
20455;BME280;10386;54.314;10.022;2022-12-18T06:52:39;102842.19;;;-5.59;100.00
20455;BME280;10386;54.314;10.022;2022-12-18T06:55:10;102840.25;;;-5.66;100.00
20455;BME280;10386;54.314;10.022;2022-12-18T06:57:37;102843.44;;;-5.81;100.00
20455;BME280;10386;54.314;10.022;2022-12-18T07:00:05;102853.97;;;-5.82;100.00
20455;BME280;10386;54.314;10.022;2022-12-18T07:02:32;102850.91;;;-5.63;100.00
20455;BME280;10386;54.314;10.022;2022-12-18T07:05:00;102850.97;;;-5.62;100.00
20455;BME280;10386;54.314;10.022;2022-12-18T07:07:34;102847.22;;;-5.70;100.00
20455;BME280;10386;54.314;10.022;2022-12-18T07:10:01;102861.13;;;-5.77;100.00
20455;BME280;10386;54.314;10.022;2022-12-18T07:12:28;102860.97;;;-5.84;100.00
20455;BME280;10386;54.314;10.022;2022-12-18T07:14:55;102869.75;;;-5.85;100.00
20455;BME280;10386;54.314;10.022;2022-12-18T07:17:22;102867.63;;;-5.98;100.00
20455;BME280;10386;54.314;10.022;2022-12-18T07:19:48;102884.34;;;-5.99;100.00
20455;BME280;10386;54.314;10.022;2022-12-18T07:22:15;102893.34;;;-5.93;100.00
20455;BME280;10386;54.314;10.022;2022-12-18T07:24:42;102897.25;;;-5.77;100.00
20455;BME280;10386;54.314;10.022;2022-12-18T07:27:08;102893.28;;;-5.62;100.00
20455;BME280;10386;54.314;10.022;2022-12-18T07:29:35;102902.16;;;-5.58;100.00
20455;BME280;10386;54.314;10.022;2022-12-18T07:32:03;102903.25;;;-5.52;100.00
20455;BME280;10386;54.314;10.022;2022-12-18T07:34:30;102900.19;;;-5.67;100.00
20455;BME280;10386;54.314;10.022;2022-12-18T07:36:57;102905.19;;;-5.45;100.00
20455;BME280;10386;54.314;10.022;2022-12-18T07:39:23;102910.09;;;-5.60;100.00
20455;BME280;10386;54.314;10.022;2022-12-18T07:41:50;102919.25;;;-5.47;100.00
20455;BME280;10386;54.314;10.022;2022-12-18T07:44:36;102912.47;;;-5.69;100.00
20455;BME280;10386;54.314;10.022;2022-12-18T07:47:03;102914.53;;;-5.57;100.00
20455;BME280;10386;54.314;10.022;2022-12-18T07:49:37;102921.81;;;-5.50;100.00
20455;BME280;10386;54.314;10.022;2022-12-18T07:52:03;102914.91;;;-5.45;100.00
20455;BME280;10386;54.314;10.022;2022-12-18T07:54:30;102916.00;;;-5.36;100.00
20455;BME280;10386;54.314;10.022;2022-12-18T07:56:57;102926.91;;;-5.56;100.00
20455;BME280;10386;54.314;10.022;2022-12-18T07:59:24;102919.06;;;-5.53;100.00
20455;BME280;10386;54.314;10.022;2022-12-18T08:01:50;102916.47;;;-5.52;100.00
20455;BME280;10386;54.314;10.022;2022-12-18T08:04:17;102911.09;;;-5.55;100.00
20455;BME280;10386;54.314;10.022;2022-12-18T08:06:44;102921.94;;;-5.46;100.00
20455;BME280;10386;54.314;10.022;2022-12-18T08:09:13;102937.34;;;-5.62;100.00
20455;BME280;10386;54.314;10.022;2022-12-18T08:11:40;102927.59;;;-5.65;100.00
20455;BME280;10386;54.314;10.022;2022-12-18T08:14:07;102938.00;;;-5.71;100.00
20455;BME280;10386;54.314;10.022;2022-12-18T08:16:34;102936.47;;;-5.63;100.00
20455;BME280;10386;54.314;10.022;2022-12-18T08:19:01;102930.06;;;-5.71;100.00
20455;BME280;10386;54.314;10.022;2022-12-18T08:21:30;102927.50;;;-5.68;100.00
20455;BME280;10386;54.314;10.022;2022-12-18T08:23:58;102921.94;;;-5.46;100.00
20455;BME280;10386;54.314;10.022;2022-12-18T08:26:28;102916.47;;;-5.52;100.00
20455;BME280;10386;54.314;10.022;2022-12-18T08:28:56;102917.38;;;-5.51;100.00
20455;BME280;10386;54.314;10.022;2022-12-18T08:31:26;102918.47;;;-5.43;100.00
20455;BME280;10386;54.314;10.022;2022-12-18T08:33:53;102911.66;;;-5.34;100.00
20455;BME280;10386;54.314;10.022;2022-12-18T08:36:21;102917.09;;;-5.30;100.00
20455;BME280;10386;54.314;10.022;2022-12-18T08:38:48;102917.19;;;-5.25;100.00
20455;BME280;10386;54.314;10.022;2022-12-18T08:41:16;102922.63;;;-5.19;100.00
20455;BME280;10386;54.314;10.022;2022-12-18T08:43:43;102923.09;;;-5.35;100.00
20455;BME280;10386;54.314;10.022;2022-12-18T08:46:42;102924.50;;;-5.15;100.00
20455;BME280;10386;54.314;10.022;2022-12-18T08:49:11;102922.69;;;-5.18;100.00
20455;BME280;10386;54.314;10.022;2022-12-18T08:51:38;102924.56;;;-5.12;100.00
20455;BME280;10386;54.314;10.022;2022-12-18T08:54:05;102930.00;;;-5.08;100.00
20455;BME280;10386;54.314;10.022;2022-12-18T08:56:33;102929.13;;;-5.08;100.00
20455;BME280;10386;54.314;10.022;2022-12-18T08:59:00;102926.84;;;-4.93;100.00
20455;BME280;10386;54.314;10.022;2022-12-18T09:01:30;102933.56;;;-5.07;100.00
20455;BME280;10386;54.314;10.022;2022-12-18T09:03:57;102938.38;;;-4.90;100.00
20455;BME280;10386;54.314;10.022;2022-12-18T09:06:24;102955.03;;;-4.95;100.00
20455;BME280;10386;54.314;10.022;2022-12-18T09:08:52;102946.56;;;-4.81;100.00
20455;BME280;10386;54.314;10.022;2022-12-18T09:11:24;102953.63;;;-4.81;100.00
20455;BME280;10386;54.314;10.022;2022-12-18T09:13:52;102948.47;;;-4.75;100.00
20455;BME280;10386;54.314;10.022;2022-12-18T09:16:20;102948.50;;;-4.74;100.00
20455;BME280;10386;54.314;10.022;2022-12-18T09:18:50;102950.34;;;-4.70;100.00
20455;BME280;10386;54.314;10.022;2022-12-18T09:21:20;102955.13;;;-4.57;100.00
20455;BME280;10386;54.314;10.022;2022-12-18T09:23:51;102950.22;;;-4.39;100.00
20455;BME280;10386;54.314;10.022;2022-12-18T09:26:18;102943.94;;;-4.44;100.00
20455;BME280;10386;54.314;10.022;2022-12-18T09:28:45;102952.91;;;-4.37;100.00
20455;BME280;10386;54.314;10.022;2022-12-18T09:31:17;102959.91;;;-4.39;100.00
20455;BME280;10386;54.314;10.022;2022-12-18T09:33:45;102963.56;;;-4.34;100.00
20455;BME280;10386;54.314;10.022;2022-12-18T09:36:14;102966.47;;;-4.24;100.00
20455;BME280;10386;54.314;10.022;2022-12-18T09:38:41;102976.97;;;-4.28;100.00
20455;BME280;10386;54.314;10.022;2022-12-18T09:47:18;102968.19;;;-4.26;100.00
20455;BME280;10386;54.314;10.022;2022-12-18T09:49:50;102973.72;;;-4.17;100.00
20455;BME280;10386;54.314;10.022;2022-12-18T09:52:23;102969.50;;;-4.07;100.00
20455;BME280;10386;54.314;10.022;2022-12-18T09:57:33;102977.78;;;-3.93;100.00
20455;BME280;10386;54.314;10.022;2022-12-18T10:00:17;102973.16;;;-4.01;100.00
20455;BME280;10386;54.314;10.022;2022-12-18T10:02:46;102983.06;;;-3.94;100.00
20455;BME280;10386;54.314;10.022;2022-12-18T10:05:16;102990.78;;;-4.05;100.00
20455;BME280;10386;54.314;10.022;2022-12-18T10:07:59;102995.19;;;-4.05;100.00
20455;BME280;10386;54.314;10.022;2022-12-18T10:10:48;103002.41;;;-4.00;100.00
20455;BME280;10386;54.314;10.022;2022-12-18T10:13:19;103004.13;;;-4.00;100.00
20455;BME280;10386;54.314;10.022;2022-12-18T10:18:59;102996.44;;;-3.90;100.00
20455;BME280;10386;54.314;10.022;2022-12-18T10:21:41;103000.25;;;-3.76;100.00
20455;BME280;10386;54.314;10.022;2022-12-18T10:24:45;103005.63;;;-3.73;100.00
20455;BME280;10386;54.314;10.022;2022-12-18T10:27:17;103007.91;;;-3.48;100.00
20455;BME280;10386;54.314;10.022;2022-12-18T10:29:45;103005.59;;;-3.33;100.00
20455;BME280;10386;54.314;10.022;2022-12-18T10:32:21;103012.06;;;-3.17;100.00
20455;BME280;10386;54.314;10.022;2022-12-18T10:34:49;103023.66;;;-3.14;100.00
20455;BME280;10386;54.314;10.022;2022-12-18T10:37:29;103028.06;;;-3.16;100.00
20455;BME280;10386;54.314;10.022;2022-12-18T10:40:12;103041.38;;;-3.13;100.00
20455;BME280;10386;54.314;10.022;2022-12-18T10:42:47;103028.69;;;-3.27;100.00
20455;BME280;10386;54.314;10.022;2022-12-18T10:45:29;103035.09;;;-3.16;100.00
20455;BME280;10386;54.314;10.022;2022-12-18T10:47:56;103033.75;;;-2.96;100.00
20455;BME280;10386;54.314;10.022;2022-12-18T10:50:28;103034.22;;;-3.17;100.00
20455;BME280;10386;54.314;10.022;2022-12-18T10:53:27;103035.28;;;-3.07;100.00
20455;BME280;10386;54.314;10.022;2022-12-18T10:55:56;103032.84;;;-2.97;100.00
20455;BME280;10386;54.314;10.022;2022-12-18T10:58:35;103031.69;;;-3.11;100.00
20455;BME280;10386;54.314;10.022;2022-12-18T11:01:12;103036.03;;;-3.14;100.00
20455;BME280;10386;54.314;10.022;2022-12-18T11:03:45;103032.88;;;-2.94;100.00
20455;BME280;10386;54.314;10.022;2022-12-18T11:06:14;103042.53;;;-2.99;100.00
20455;BME280;10386;54.314;10.022;2022-12-18T11:08:43;103038.75;;;-3.11;100.00
20455;BME280;10386;54.314;10.022;2022-12-18T11:11:21;103052.19;;;-3.02;100.00
20455;BME280;10386;54.314;10.022;2022-12-18T11:14:05;103052.94;;;-3.11;100.00
20455;BME280;10386;54.314;10.022;2022-12-18T11:16:42;103047.78;;;-3.02;100.00
20455;BME280;10386;54.314;10.022;2022-12-18T11:19:39;103036.31;;;-2.99;100.00
20455;BME280;10386;54.314;10.022;2022-12-18T11:22:23;103018.63;;;-2.99;100.00
20455;BME280;10386;54.314;10.022;2022-12-18T11:25:01;103013.09;;;-3.11;100.00
20455;BME280;10386;54.314;10.022;2022-12-18T11:27:51;103023.63;;;-3.15;100.00
20455;BME280;10386;54.314;10.022;2022-12-18T11:32:54;103023.44;;;-3.26;100.00
20455;BME280;10386;54.314;10.022;2022-12-18T11:38:04;103028.94;;;-3.15;100.00
20455;BME280;10386;54.314;10.022;2022-12-18T11:40:36;103027.94;;;-3.22;100.00
20455;BME280;10386;54.314;10.022;2022-12-18T11:43:13;103027.28;;;-3.09;100.00
20455;BME280;10386;54.314;10.022;2022-12-18T11:46:14;103029.03;;;-3.11;100.00
20455;BME280;10386;54.314;10.022;2022-12-18T11:49:13;103024.00;;;-2.97;100.00
20455;BME280;10386;54.314;10.022;2022-12-18T11:51:52;103016.03;;;-2.96;100.00
20455;BME280;10386;54.314;10.022;2022-12-18T11:54:21;103015.22;;;-2.92;100.00
20455;BME280;10386;54.314;10.022;2022-12-18T12:00:16;103022.53;;;-2.80;100.00
20455;BME280;10386;54.314;10.022;2022-12-18T12:08:21;102999.88;;;-2.56;100.00
20455;BME280;10386;54.314;10.022;2022-12-18T12:21:42;102993.50;;;-2.69;100.00
20455;BME280;10386;54.314;10.022;2022-12-18T12:38:29;102964.25;;;-2.69;100.00
20455;BME280;10386;54.314;10.022;2022-12-18T12:40:59;102962.59;;;-2.61;100.00
20455;BME280;10386;54.314;10.022;2022-12-18T12:43:40;102956.69;;;-2.43;100.00
20455;BME280;10386;54.314;10.022;2022-12-18T12:46:18;102947.66;;;-2.54;100.00
20455;BME280;10386;54.314;10.022;2022-12-18T12:48:51;102950.31;;;-2.54;100.00
20455;BME280;10386;54.314;10.022;2022-12-18T12:53:59;102940.38;;;-2.64;100.00
20455;BME280;10386;54.314;10.022;2022-12-18T12:56:54;102928.09;;;-2.56;100.00
20455;BME280;10386;54.314;10.022;2022-12-18T13:00:02;102906.75;;;-2.62;100.00
20455;BME280;10386;54.314;10.022;2022-12-18T13:02:39;102900.78;;;-2.48;100.00
20455;BME280;10386;54.314;10.022;2022-12-18T13:08:10;102905.44;;;-2.32;100.00
20455;BME280;10386;54.314;10.022;2022-12-18T13:10:41;102905.56;;;-2.24;100.00
20455;BME280;10386;54.314;10.022;2022-12-18T13:15:48;102901.84;;;-2.35;100.00
20455;BME280;10386;54.314;10.022;2022-12-18T13:18:29;102920.38;;;-2.41;100.00
20455;BME280;10386;54.314;10.022;2022-12-18T13:23:35;102937.16;;;-2.44;100.00
20455;BME280;10386;54.314;10.022;2022-12-18T13:28:56;102932.59;;;-2.55;100.00
20455;BME280;10386;54.314;10.022;2022-12-18T13:33:50;102923.56;;;-2.63;100.00
20455;BME280;10386;54.314;10.022;2022-12-18T13:36:37;102921.78;;;-2.64;100.00
20455;BME280;10386;54.314;10.022;2022-12-18T13:45:43;102924.25;;;-2.77;100.00
20455;BME280;10386;54.314;10.022;2022-12-18T13:48:18;102930.47;;;-2.75;100.00
20455;BME280;10386;54.314;10.022;2022-12-18T13:50:53;102930.28;;;-2.86;100.00
20455;BME280;10386;54.314;10.022;2022-12-18T13:53:26;102933.75;;;-2.91;100.00
20455;BME280;10386;54.314;10.022;2022-12-18T13:55:54;102936.94;;;-3.12;100.00
20455;BME280;10386;54.314;10.022;2022-12-18T13:58:22;102944.75;;;-3.21;100.00
20455;BME280;10386;54.314;10.022;2022-12-18T14:00:49;102958.78;;;-3.26;100.00
20455;BME280;10386;54.314;10.022;2022-12-18T14:03:26;102960.63;;;-3.24;100.00
20455;BME280;10386;54.314;10.022;2022-12-18T14:06:01;102969.22;;;-3.37;100.00
20455;BME280;10386;54.314;10.022;2022-12-18T14:08:42;102965.66;;;-3.37;100.00
20455;BME280;10386;54.314;10.022;2022-12-18T14:11:20;102964.69;;;-3.42;100.00
20455;BME280;10386;54.314;10.022;2022-12-18T14:13:49;102974.31;;;-3.47;100.00